Bowie, TX (76230)

10:31 AM CDT on August 31, 2015 (GMT -0500)
K5EAG - Bill Miller - Bowie, Texas | | Change Station
CLOSE
Current Station
Personal Weather Station
Location: Bowie, TX
Elevation: 1142 ft
Nearby Weather Stations

Elev 1142 ft 33.56 °N, 97.84 °W | Updated 1 minute ago

Clear
Clear
85.3 °F
Feels Like 88 °F
N
0.0
Wind Variable Wind from West
Gusts 0.0 mph

Today
High -- | Low -- °F
--% Chance of Precip.
Yesterday
High -- | Low -- °F
Precip. -- in
7:04 AM 7:58 PM
Waning Gibbous, 95% visible
Pressure 30.05 in
Visibility 10.0 miles
Clouds Clear
Heat Index 88 °F
Dew Point 66 °F
Humidity 53%
Rainfall 0.00 in
Snow Depth Not available.
UV 3.0 out of 12
Pollen 9.30 out of 12
Air Quality Not available.
Flu Activity Not available.
METAR K0F2 311515Z AUTO 19007KT 10SM CLR 28/18 A3005 RMK AO2 T02790181
Pressure 30.05 in
Visibility 10.0 miles
Clouds Clear
Heat Index 88 °F
Dew Point 66 °F
Humidity 53%
Rainfall 0.00 in
Snow Depth Not available.
UV 3.0 out of 12
Pollen 9.30 out of 12
Air Quality Not available.
Flu Activity Not available.
METAR K0F2 311515Z AUTO 19007KT 10SM CLR 28/18 A3005 RMK AO2 T02790181

10-Day Weather Forecast

×

Almanac

Astronomy

Aug. 31, 2015 Rise Set
Actual Time
Civil Twilight
Nautical Twilight
Astronomical Twilight
Moon
Length of Visible Light
Length of Day
Tomorrow will be .
, % of the Moon is Illuminated

Today's Extremes

State Highs State Lows

Community

WunderPhotos

Upload Photos

1,851,282 photos uploaded!

WunderBlogs® & News

Nearby

Air Quality

  Air Quality AQ Index Pollutant
Not available.

Snow Depth

Station Depth Elevation

Earthquake Activity

City Distance Mag. Time & Date
Minimum magnitude displayed is 2.5.

Coastal Water Temperatures

Place Temperature

Stations

Nearby Weather Stations

Station Location Temp. Windchill Dew Point Humidity Wind Precip. Elev Updated Type